Погода Абасолона неделю

Гуанахуато, Мексика

24 февраля-01 марта
  • 24февраля
    Сегодня
    +10°
    +32°
    Ясно и безоблачно
    ВремяПогодаТемператураВлажностьДавлениеВетер, м/сВероятность осадков
    00:00Ясно и безоблачно+16°C75 %621 мм2.3 м/с2 %
    03:00Ясно и безоблачно+13°C82 %621 мм2.4 м/с2 %
    06:00Практически безоблачно+12°C88 %621 мм2.0 м/с2 %
    09:00Практически безоблачно+14°C71 %623 мм1.6 м/с2 %
    12:00Практически безоблачно+25°C35 %625 мм0.8 м/с2 %
    15:00Ясно и безоблачно+31°C15 %624 мм0.6 м/с2 %
    18:00Практически безоблачно+29°C28 %623 мм1.3 м/с2 %
    21:00Практически безоблачно+20°C37 %621 мм1.2 м/с2 %
  • 25февраля
    Воскресенье
    +11°
    +33°
    Ясно и безоблачно
    ВремяПогодаТемператураВлажностьДавлениеВетер, м/сВероятность осадков
    00:00Небольшая облачность+16°C55 %623 мм2.2 м/с2 %
    03:00Практически безоблачно+14°C65 %622 мм1.1 м/с2 %
    06:00Ясно и безоблачно+11°C75 %621 мм0.7 м/с2 %
    09:00Практически безоблачно+15°C59 %624 мм0.6 м/с2 %
    12:00Ясно и безоблачно+27°C26 %626 мм0.6 м/с2 %
    15:00Ясно и безоблачно+33°C11 %624 мм1.3 м/с2 %
    18:00Ясно и безоблачно+30°C23 %623 мм0.2 м/с2 %
    21:00Ясно и безоблачно+23°C18 %623 мм2.4 м/с2 %
  • 26февраля
    Понедельник
    +11°
    +33°
    Ясно и безоблачно
    ВремяПогодаТемператураВлажностьДавлениеВетер, м/сВероятность осадков
    00:00Ясно и безоблачно+17°C38 %622 мм0.9 м/с2 %
    03:00Ясно и безоблачно+13°C50 %621 мм1.8 м/с2 %
    06:00Ясно и безоблачно+13°C52 %621 мм0.5 м/с2 %
    09:00Ясно и безоблачно+17°C37 %624 мм0.4 м/с2 %
    12:00Ясно и безоблачно+28°C17 %626 мм0.7 м/с2 %
    15:00Ясно и безоблачно+33°C9 %624 мм0.9 м/с2 %
    18:00Ясно и безоблачно+31°C14 %623 мм1.0 м/с2 %
    21:00Ясно и безоблачно+22°C18 %621 мм2.5 м/с2 %
  • 27февраля
    Вторник
    +11°
    +33°
    Ясно и безоблачно
    ВремяПогодаТемператураВлажностьДавлениеВетер, м/сВероятность осадков
    00:00Практически безоблачно+18°C43 %621 мм0.6 м/с2 %
    03:00Небольшая облачность+14°C60 %619 мм1.5 м/с2 %
    06:00Небольшая облачность+12°C73 %619 мм1.8 м/с2 %
    09:00Ясно и безоблачно+17°C55 %623 мм0.7 м/с2 %
    12:00Ясно и безоблачно+29°C19 %625 мм0.4 м/с2 %
    15:00Ясно и безоблачно+32°C14 %623 мм0.3 м/с2 %
    18:00Ясно и безоблачно+31°C18 %621 мм1.5 м/с2 %
    21:00Ясно и безоблачно+23°C31 %620 мм2.3 м/с2 %
  • 28февраля
    Среда
    +14°
    +33°
    Облачно с прояснениями
    ВремяПогодаТемператураВлажностьДавлениеВетер, м/сВероятность осадков
    00:00Ясно и безоблачно+19°C34 %620 мм2.5 м/с2 %
    03:00Ясно и безоблачно+15°C54 %619 мм1.8 м/с2 %
    06:00Ясно и безоблачно+12°C58 %618 мм1.9 м/с2 %
    09:00Практически безоблачно+18°C39 %622 мм0.7 м/с2 %
    12:00Облачно с прояснениями+29°C14 %624 мм0.9 м/с2 %
    15:00Облачно с прояснениями+32°C11 %623 мм0.3 м/с2 %
    18:00Ясно и безоблачно+31°C20 %622 мм0.7 м/с2 %
    21:00Практически безоблачно+24°C19 %621 мм3.4 м/с2 %
Мы используем cookies
Соглашаюсь